createdAt,value
2023-05-05T00:00:38.369Z,4.82
2023-05-05T00:04:20.087Z,3.00
2023-05-05T00:08:01.674Z,2.73
2023-05-05T00:11:43.339Z,3.61
2023-05-05T00:15:25.134Z,4.05
2023-05-05T00:19:06.775Z,3.42
2023-05-05T00:22:48.389Z,3.77
2023-05-05T00:26:30.105Z,3.89
2023-05-05T00:30:11.773Z,3.18
2023-05-05T00:33:53.453Z,4.55
2023-05-05T00:37:35.130Z,4.18
2023-05-05T00:41:16.810Z,3.21
2023-05-05T00:44:58.466Z,3.47
2023-05-05T00:48:40.061Z,2.29
2023-05-05T00:52:21.663Z,2.48
2023-05-05T01:03:23.700Z,0.00
2023-05-05T01:14:25.365Z,0.00
2023-05-05T01:18:07.037Z,2.74
2023-05-05T01:21:48.519Z,2.48
2023-05-05T01:25:30.147Z,2.09
2023-05-05T01:29:11.776Z,3.11
2023-05-05T01:32:53.521Z,3.01
2023-05-05T01:43:55.189Z,2.09
2023-05-05T01:47:36.854Z,4.02
2023-05-05T01:51:18.423Z,2.09
2023-05-05T02:02:20.156Z,1.70
2023-05-05T02:13:22.053Z,3.33
2023-05-05T02:17:03.525Z,2.09
2023-05-05T02:28:05.244Z,2.87
2023-05-05T02:31:47.114Z,3.05
2023-05-05T02:35:28.599Z,3.14
2023-05-05T02:39:10.299Z,4.23
2023-05-05T02:42:51.970Z,3.63
2023-05-05T02:46:33.695Z,3.02
2023-05-05T02:53:55.251Z,2.87
2023-05-05T02:57:36.866Z,3.37
2023-05-05T03:01:18.458Z,3.77
2023-05-05T03:05:00.007Z,3.54
2023-05-05T03:08:41.621Z,3.16
2023-05-05T03:12:23.360Z,3.82
2023-05-05T03:16:04.949Z,4.08
2023-05-05T03:19:46.642Z,4.72
2023-05-05T03:23:28.325Z,4.71
2023-05-05T03:27:10.039Z,4.10
2023-05-05T03:30:51.682Z,3.09
2023-05-05T03:34:33.262Z,3.31
2023-05-05T03:38:14.862Z,2.38
2023-05-05T03:41:56.452Z,2.19
2023-05-05T03:45:38.170Z,3.03
2023-05-05T03:49:19.858Z,3.17
2023-05-05T03:53:01.486Z,3.55
2023-05-05T03:56:43.094Z,2.55
2023-05-05T04:00:24.705Z,4.27
2023-05-05T04:07:46.462Z,3.34
2023-05-05T04:11:28.041Z,2.67
2023-05-05T04:15:09.671Z,1.70
2023-05-05T04:18:51.238Z,2.29
2023-05-05T04:22:32.813Z,2.61
2023-05-05T04:33:34.575Z,0.00
2023-05-05T04:44:36.306Z,0.00
2023-05-05T04:48:17.944Z,3.74
2023-05-05T04:51:59.640Z,2.73
2023-05-05T04:55:41.306Z,3.91
2023-05-05T04:59:22.875Z,2.77
2023-05-05T05:03:04.548Z,3.44
2023-05-05T05:06:46.172Z,2.94
2023-05-05T05:10:27.821Z,2.63
2023-05-05T05:21:29.426Z,2.87
2023-05-05T05:28:51.184Z,3.40
2023-05-05T05:32:32.750Z,1.70
2023-05-05T05:36:14.369Z,2.57
2023-05-05T05:47:16.137Z,2.91
2023-05-05T05:50:57.714Z,3.92
2023-05-05T05:54:39.315Z,2.19
2023-05-05T06:05:41.078Z,0.00
2023-05-05T06:16:42.776Z,0.00
2023-05-05T06:27:44.545Z,0.00
2023-05-05T06:38:46.239Z,2.48
2023-05-05T06:42:27.852Z,2.96
2023-05-05T06:49:49.624Z,3.06
2023-05-05T07:00:51.307Z,0.00
2023-05-05T07:11:53.110Z,0.00
2023-05-05T07:22:54.734Z,0.00
2023-05-05T07:33:56.549Z,0.00
2023-05-05T07:44:58.380Z,2.09
2023-05-05T07:56:00.105Z,0.00
2023-05-05T07:59:41.523Z,4.52
2023-05-05T08:03:23.305Z,3.14
2023-05-05T08:10:44.895Z,2.81
2023-05-05T08:14:26.645Z,2.48
2023-05-05T08:18:08.214Z,3.37
2023-05-05T08:21:49.744Z,2.79
2023-05-05T08:25:31.362Z,2.48
2023-05-05T08:29:13.099Z,3.66
2023-05-05T08:32:54.965Z,3.60
2023-05-05T08:36:36.462Z,3.24
2023-05-05T08:40:18.073Z,4.32
2023-05-05T08:43:59.851Z,4.57
2023-05-05T08:47:41.776Z,4.08
2023-05-05T08:51:23.522Z,4.62
2023-05-05T08:55:05.261Z,4.03
2023-05-05T08:58:47.013Z,3.66
2023-05-05T09:02:28.755Z,4.24
2023-05-05T09:06:10.411Z,5.83
2023-05-05T09:09:52.153Z,2.26
2023-05-05T09:13:33.651Z,5.60
2023-05-05T09:17:15.270Z,4.20
2023-05-05T09:24:37.104Z,4.57
2023-05-05T09:28:18.866Z,4.22
2023-05-05T09:32:00.445Z,4.43
2023-05-05T09:35:42.060Z,6.42
2023-05-05T09:39:23.921Z,4.82
2023-05-05T09:43:05.665Z,5.01
2023-05-05T09:46:47.521Z,3.51
2023-05-05T09:50:29.185Z,3.95
2023-05-05T09:54:10.997Z,5.25
2023-05-05T09:57:52.795Z,6.26
2023-05-05T10:01:34.731Z,5.47
2023-05-05T10:05:16.665Z,5.65
2023-05-05T10:08:58.486Z,6.96
2023-05-05T10:12:40.535Z,7.63
2023-05-05T10:16:22.351Z,5.97
2023-05-05T10:20:04.188Z,6.21
2023-05-05T10:23:46.175Z,4.45
2023-05-05T10:27:27.859Z,5.42
2023-05-05T10:31:20.389Z,6.23
2023-05-05T10:34:51.619Z,5.11
2023-05-05T10:38:33.462Z,5.51
2023-05-05T10:42:15.269Z,6.63
2023-05-05T10:45:57.049Z,6.07
2023-05-05T10:49:38.858Z,6.08
2023-05-05T10:53:20.702Z,4.72
2023-05-05T10:57:02.485Z,5.38
2023-05-05T11:00:44.616Z,7.82
2023-05-05T11:04:26.338Z,5.44
2023-05-05T11:08:08.205Z,5.83
2023-05-05T11:11:50.063Z,5.68
2023-05-05T11:15:31.974Z,6.12
2023-05-05T11:19:13.901Z,4.52
2023-05-05T11:22:55.480Z,4.16
2023-05-05T11:26:37.197Z,3.67
2023-05-05T11:30:19.058Z,6.33
2023-05-05T11:34:00.964Z,5.98
2023-05-05T11:37:42.847Z,5.63
2023-05-05T11:41:24.420Z,2.77
2023-05-05T11:45:06.254Z,6.72
2023-05-05T11:48:48.104Z,6.12
2023-05-05T11:52:29.894Z,6.31
2023-05-05T11:56:11.887Z,4.60
2023-05-05T11:59:53.551Z,4.72
2023-05-05T12:03:35.531Z,7.08
2023-05-05T12:07:17.269Z,5.69
2023-05-05T12:10:58.939Z,4.59
2023-05-05T12:14:40.829Z,5.27
2023-05-05T12:18:22.585Z,6.68
2023-05-05T12:22:04.419Z,4.55
2023-05-05T12:25:46.087Z,4.18
2023-05-05T12:29:27.746Z,3.36
2023-05-05T12:33:09.726Z,4.44
2023-05-05T12:36:51.387Z,4.44
2023-05-05T12:40:33.226Z,5.64
2023-05-05T12:44:15.083Z,5.52
2023-05-05T12:47:56.835Z,4.09
2023-05-05T12:51:38.776Z,5.24
2023-05-05T12:55:20.397Z,3.49
2023-05-05T12:59:02.247Z,4.47
2023-05-05T13:02:43.950Z,4.12
2023-05-05T13:06:25.748Z,6.79
2023-05-05T13:10:07.727Z,5.19
2023-05-05T13:13:49.224Z,4.06
2023-05-05T13:17:32.256Z,4.23
2023-05-05T13:21:12.766Z,4.98
2023-05-05T13:24:54.626Z,4.16
2023-05-05T13:28:36.308Z,3.06
2023-05-05T13:32:18.127Z,4.71
2023-05-05T13:35:59.908Z,4.64
2023-05-05T13:39:41.712Z,6.39
2023-05-05T13:43:23.461Z,3.49
2023-05-05T13:47:05.536Z,5.72
2023-05-05T13:50:47.141Z,5.62
2023-05-05T13:54:28.952Z,4.40
2023-05-05T13:58:10.645Z,2.97
2023-05-05T14:01:52.354Z,5.48
2023-05-05T14:05:34.315Z,5.01
2023-05-05T14:09:15.939Z,4.10
2023-05-05T14:12:57.679Z,3.62
2023-05-05T14:20:19.447Z,3.71
2023-05-05T14:24:01.239Z,3.06
2023-05-05T14:27:42.794Z,2.99
2023-05-05T14:31:24.652Z,4.13
2023-05-05T14:35:06.434Z,3.73
2023-05-05T14:38:48.133Z,3.60
2023-05-05T14:42:29.940Z,3.74
2023-05-05T14:46:11.499Z,3.83
2023-05-05T14:49:53.253Z,3.20
2023-05-05T14:53:34.913Z,3.48
2023-05-05T14:57:16.621Z,4.62
2023-05-05T15:00:58.373Z,4.69
2023-05-05T15:04:40.030Z,3.34
2023-05-05T15:08:21.616Z,3.77
2023-05-05T15:12:03.184Z,2.09
2023-05-05T15:15:44.809Z,2.32
2023-05-05T15:19:26.658Z,2.93
2023-05-05T15:23:08.164Z,4.14
2023-05-05T15:26:49.782Z,3.33
2023-05-05T15:34:11.559Z,3.39
2023-05-05T15:37:53.292Z,3.32
2023-05-05T15:41:34.776Z,3.04
2023-05-05T15:45:16.374Z,4.02
2023-05-05T15:56:18.244Z,0.00
2023-05-05T16:07:19.847Z,0.00
2023-05-05T16:11:01.401Z,2.29
2023-05-05T16:18:23.179Z,2.99
2023-05-05T16:29:24.814Z,0.00
2023-05-05T16:40:26.628Z,0.00
2023-05-05T16:47:48.338Z,2.68
2023-05-05T16:51:30.085Z,9.13
2023-05-05T16:55:12.066Z,10.35
2023-05-05T16:58:54.193Z,14.36
2023-05-05T17:02:38.309Z,16.26
2023-05-05T17:06:18.605Z,8.53
2023-05-05T17:10:00.574Z,7.31
2023-05-05T17:13:42.402Z,6.91
2023-05-05T17:17:24.381Z,7.15
2023-05-05T17:21:06.109Z,8.45
2023-05-05T17:24:47.926Z,7.48
2023-05-05T17:28:29.611Z,4.76
2023-05-05T17:35:51.364Z,5.61
2023-05-05T17:46:53.180Z,3.34
2023-05-05T17:50:34.774Z,2.86
2023-05-05T18:01:36.656Z,0.00
2023-05-05T18:12:38.491Z,0.00
2023-05-05T18:23:40.446Z,0.00
2023-05-05T18:34:42.246Z,0.00
2023-05-05T18:45:44.404Z,0.00
2023-05-05T18:49:27.673Z,3.21
2023-05-05T18:53:08.250Z,4.27
2023-05-05T18:56:50.238Z,3.09
2023-05-05T19:00:32.372Z,3.70
2023-05-05T19:04:29.540Z,1.70
2023-05-05T19:07:56.072Z,2.48
2023-05-05T19:18:58.138Z,3.03
2023-05-05T19:30:00.222Z,0.00
2023-05-05T19:37:22.224Z,2.29
2023-05-05T19:44:44.218Z,2.09
2023-05-05T19:48:26.260Z,2.56
2023-05-05T19:52:08.128Z,4.96
2023-05-05T19:55:50.180Z,4.27
2023-05-05T19:59:32.233Z,4.98
2023-05-05T20:03:14.373Z,4.82
2023-05-05T20:06:56.327Z,8.84
2023-05-05T20:10:38.178Z,3.30
2023-05-05T20:14:20.110Z,2.87
2023-05-05T20:18:02.145Z,4.25
2023-05-05T20:21:45.098Z,5.21
2023-05-05T20:32:47.259Z,0.00
2023-05-05T20:40:09.171Z,3.86
2023-05-05T20:43:50.731Z,2.35
2023-05-05T20:54:52.672Z,0.00
2023-05-05T21:02:14.312Z,3.33
2023-05-05T21:05:56.015Z,6.19
2023-05-05T21:09:37.821Z,5.86
2023-05-05T21:13:19.721Z,6.98
2023-05-05T21:17:01.239Z,3.84
2023-05-05T21:20:42.837Z,2.86
2023-05-05T21:24:24.498Z,3.32
2023-05-05T21:28:06.168Z,4.30
2023-05-05T21:31:47.897Z,3.25
2023-05-05T21:35:29.326Z,2.87
2023-05-05T21:42:51.017Z,2.90
2023-05-05T21:46:32.639Z,2.80
2023-05-05T21:57:34.427Z,0.00
2023-05-05T22:08:36.048Z,0.00
2023-05-05T22:19:37.794Z,0.00
2023-05-05T22:30:39.498Z,0.00
2023-05-05T22:41:41.398Z,0.00
2023-05-05T22:52:42.961Z,0.00
2023-05-05T23:03:44.853Z,0.00
2023-05-05T23:14:46.424Z,0.00
2023-05-05T23:22:08.104Z,2.20
2023-05-05T23:33:09.850Z,0.00
2023-05-05T23:44:11.730Z,0.00
2023-05-05T23:55:13.308Z,0.00
